Long Eddy, New York
Current Conditions -  °F | °C
As of 10:55 PM on Wednesday 17 Dec 2014 (Local Time) from KMSV Reporting Station
Overcast Overcast  
Wind Chill: 23°   Ceiling: 2000
Heat Index: 32°   Visibility: 10mi
Dew Point: 28°   Wind: 13mph
Humidity: 87%   Direction: 290°WNW
Pressure: 29.87"   Gusts: 21mph
Location:  41.85°N, 75.13°W
Report Text: KMSV 180355Z AUTO 29011G18KT 10SM OVC020 00/M02 A2987 RMK AO1
Loading
Personal Weather Stations






























Interactive Weather Map New forecast layout! Learn more

10-Day Weather Forecast

Advertisements
Track Severe Weather on mobile